Time,TemperatureF,DewpointF,PressureIn,WindDirection,WindDirectionDegrees,WindSpeedMPH,WindSpeedGustMPH,Humidity,HourlyPrecipIn,Conditions,Clouds,dailyrainin,SoftwareType,DateUTC
2013-04-11 00:02:00,41.0,32.0,-100.00,SW,230,16.0,17.0,72,-99.99,,,0.00,,2013-04-11 06:02:00,
2013-04-11 00:12:00,41.0,32.0,-100.00,SW,230,16.0,17.0,72,-99.99,,,0.00,,2013-04-11 06:12:00,
2013-04-11 00:22:00,41.0,32.0,-100.00,SW,230,16.0,17.0,72,-99.99,,,0.00,,2013-04-11 06:22:00,
2013-04-11 01:02:00,40.0,31.0,-100.00,SW,215,14.0,16.0,69,-99.99,,,0.00,,2013-04-11 07:02:00,
2013-04-11 01:12:00,40.0,31.0,-100.00,SW,215,14.0,16.0,69,-99.99,,,0.00,,2013-04-11 07:12:00,
2013-04-11 02:02:00,39.0,30.0,-100.00,SSE,160,6.0,8.0,71,-99.99,,,0.00,,2013-04-11 08:02:00,
2013-04-11 02:12:00,39.0,30.0,-100.00,SSE,160,6.0,8.0,71,-99.99,,,0.00,,2013-04-11 08:12:00,
2013-04-11 02:22:00,39.0,30.0,-100.00,SSE,160,6.0,8.0,71,-99.99,,,0.00,,2013-04-11 08:22:00,
2013-04-11 03:02:00,40.0,30.0,-100.00,West,275,12.0,14.0,67,-99.99,,,0.00,,2013-04-11 09:02:00,
2013-04-11 03:12:00,40.0,30.0,-100.00,West,275,12.0,14.0,67,-99.99,,,0.00,,2013-04-11 09:12:00,
2013-04-11 03:22:00,40.0,30.0,-100.00,West,275,12.0,14.0,67,-99.99,,,0.00,,2013-04-11 09:22:00,
2013-04-11 04:02:00,39.0,28.0,-100.00,NW,315,9.0,10.0,63,-99.99,,,0.00,,2013-04-11 10:02:00,
2013-04-11 04:12:00,39.0,28.0,-100.00,NW,315,9.0,10.0,63,-99.99,,,0.00,,2013-04-11 10:12:00,
2013-04-11 04:22:00,39.0,28.0,-100.00,NW,315,9.0,10.0,63,-99.99,,,0.00,,2013-04-11 10:22:00,
2013-04-11 05:12:00,37.0,28.0,-100.00,WSW,240,11.0,13.0,68,-99.99,,,0.00,,2013-04-11 11:12:00,
2013-04-11 05:22:00,37.0,28.0,-100.00,WSW,240,11.0,13.0,68,-99.99,,,0.00,,2013-04-11 11:22:00,
2013-04-11 06:02:00,38.0,28.0,-100.00,ENE,70,7.0,10.0,67,-99.99,,,0.00,,2013-04-11 12:02:00,
2013-04-11 06:12:00,38.0,28.0,-100.00,ENE,70,7.0,10.0,67,-99.99,,,0.00,,2013-04-11 12:12:00,
2013-04-11 06:22:00,38.0,28.0,-100.00,ENE,70,7.0,10.0,67,-99.99,,,0.00,,2013-04-11 12:22:00,
2013-04-11 08:02:00,36.0,30.0,-100.00,ESE,120,1.0,2.0,78,-99.99,,,0.00,,2013-04-11 14:02:00,
2013-04-11 08:12:00,36.0,30.0,-100.00,ESE,120,1.0,2.0,78,-99.99,,,0.00,,2013-04-11 14:12:00,
2013-04-11 08:22:00,36.0,30.0,-100.00,ESE,120,1.0,2.0,78,-99.99,,,0.00,,2013-04-11 14:22:00,
2013-04-11 09:02:00,41.0,32.0,-100.00,WSW,255,3.0,3.0,70,-99.99,,,0.00,,2013-04-11 15:02:00,
2013-04-11 09:12:00,41.0,32.0,-100.00,WSW,255,3.0,3.0,70,-99.99,,,0.00,,2013-04-11 15:12:00,
2013-04-11 09:22:00,41.0,32.0,-100.00,WSW,255,3.0,3.0,70,-99.99,,,0.00,,2013-04-11 15:22:00,